الصفحة الرئيسية
METAR-TAF:

METAR-TAF

مطار :

فودجا, إيطاليا

دائرة عرض: 41-32N, خط طول: 015-43E, ارتفاع: 57 متر

مراقبة الطقس الحالي

تاريخ ووقت الإصدار 52 دقيقة قبل الساعة 14:55UTC
ريح 8 عقدة من الشرق/الشمال الشرقي
درجة الحرارة 17°درجة مئوية
الرطوبة 34%
ضغط 1024 hPa
الرؤية 10 كم أو أكثر
غيوم قليلة على ارتفاع 4000 قدم

METAR: LIBA 061455Z 07008KT 9999 FEW040 17/01 Q1024 RMK FEW VIS MIN 9999 WIND THR11 08009KT WIND THR29 /////KT BLU

زمن: 17:47 (15:47 UTC)

توقعات

تاريخ ووقت الإصدار 1ساعة و 47 دقيقة قبل الساعة 14:00UTC
التوقعات صالحة من06 الساعة 15 UTC إلى 06 الساعة 24 UTC
ريح 8 عقدة من الشرق
الرؤية 10 كم أو أكثر
غيوم قليلة على ارتفاع 3500 قدم

TAF: LIBA 061400Z 0615/0624 08008KT 9999 FEW035

أرصاد الطقس والتوقعات من أكثر من 4000 مطار (تقارير الطقس للمطار METAR والتنبؤ بالطقس بالمطارTAF).

المحطات المتاحة هي النقط الصفراء والحمراء على الخريطة.

حرك المؤشر فوق النقطة لمعرفة اسم المحطة.

ثم انقر لمعرفة أرصاد وتوقعات الطقس.

لتغيير الخارطة: اضغط على الأزرار الخضراء مع رمز الصليب الأسود للتكبير. على الزر الأخضر مع شرطة للتصغير، أو على الأسهم الخضراء للخرائط المجاورة.


METAR-TAF: